Time;durP1;ratioP1;P1;durP2;ratioP2;P2;SDS_P1;SDS_P2;PMS_P1;PMS_P2;Temp;Humidity;BMP_temperature;BMP_pressure;BME280_temperature;BME280_humidity;BME280_pressure;Samples;Min_cycle;Max_cycle;Signal;HPM_P1;HPM_P2
2024/04/23 00:33:36;;;;;;;0.00;0.00;;;;;;;6.83;91.68;101253.09;6426536;22;19999;-79
2024/04/23 00:50:45;;;;;;;0.00;0.00;;;;;;;6.94;91.27;101232.53;6371857;22;20070;-73
2024/04/23 00:53:15;;;;;;;0.00;0.00;;;;;;;6.69;91.34;101198.00;6372713;22;19999;-73
2024/04/23 00:55:58;;;;;;;0.00;0.00;;;;;;;6.90;91.31;101226.69;6374261;22;20485;-73
2024/04/23 00:58:43;;;;;;;0.00;0.00;;;;;;;6.95;91.49;101231.44;6369486;22;19999;-73
2024/04/23 01:01:10;;;;;;;0.00;0.00;;;;;;;6.79;91.39;101206.50;6307564;22;20014;-73
2024/04/23 01:03:35;;;;;;;0.00;0.00;;;;;;;6.87;91.16;101215.44;6369824;22;20010;-74
2024/04/23 01:06:26;;;;;;;0.00;0.00;;;;;;;6.80;90.92;101201.88;6331670;22;20411;-73
2024/04/23 01:09:04;;;;;;;;;;;;;;;;;;;;;
2024/04/23 01:11:39;;;;;;;0.10;0.10;;;;;;;6.75;91.38;101183.50;6372582;22;20399;-73
2024/04/23 01:14:05;;;;;;;0.10;0.10;;;;;;;6.78;90.98;101188.50;6373928;22;19999;-73
2024/04/23 02:01:51;;;;;;;;;;;;;;;;;;;;;
2024/04/23 02:04:29;;;;;;;0.00;0.00;;;;;;;6.96;90.71;101159.69;6328067;22;20000;-78
2024/04/23 02:07:02;;;;;;;0.00;0.00;;;;;;;7.03;90.81;101176.78;6340455;22;20003;-78
2024/04/23 02:09:30;;;;;;;0.00;0.00;;;;;;;7.18;90.81;101186.47;6337676;22;20003;-77
2024/04/23 02:12:05;;;;;;;;;;;;;;;;;;;;;
2024/04/23 02:14:38;;;;;;;0.00;0.00;;;;;;;7.22;91.03;101190.41;6381040;22;19999;-77
2024/04/23 02:17:04;;;;;;;0.00;0.00;;;;;;;7.15;90.82;101175.00;6339087;22;20004;-77
2024/04/23 02:19:32;;;;;;;0.00;0.00;;;;;;;7.18;90.77;101178.31;6337716;22;20387;-76
2024/04/23 02:22:07;;;;;;;0.10;0.10;;;;;;;7.33;90.44;101189.69;6336937;22;20009;-77
2024/04/23 02:24:35;;;;;;;0.00;0.00;;;;;;;7.35;90.77;101198.44;6301243;22;19999;-76
2024/04/23 02:27:02;;;;;;;0.00;0.00;;;;;;;7.26;90.47;101181.56;6338794;22;19991;-78
2024/04/23 02:29:27;;;;;;;0.00;0.00;;;;;;;7.21;90.65;101177.88;6339969;22;19999;-79
2024/04/23 02:31:53;;;;;;;0.00;0.00;;;;;;;7.22;90.36;101182.25;6337813;22;19995;-78
2024/04/23 02:34:44;;;;;;;0.00;0.00;;;;;;;7.31;90.67;101194.50;6297183;22;20510;-79
2024/04/23 02:47:15;;;;;;;;;;;;;;;7.27;91.05;101185.97;6184882;22;20016;-75
2024/04/23 02:49:53;;;;;;;;;;;;;;;;;;;;;
2024/04/23 02:52:24;;;;;;;0.00;0.00;;;;;;;7.01;90.48;101132.69;6321180;22;19995;-74
2024/04/23 02:54:50;;;;;;;0.00;0.00;;;;;;;7.30;90.62;101177.34;6331152;22;20011;-76
2024/04/23 02:57:15;;;;;;;0.00;0.00;;;;;;;7.09;90.47;101140.53;6332802;22;20399;-75
2024/04/23 02:59:48;;;;;;;0.00;0.00;;;;;;;7.27;90.47;101158.75;6334629;22;20010;-75
2024/04/23 03:02:14;;;;;;;0.00;0.00;;;;;;;7.17;90.88;101144.84;6293565;22;20074;-74
2024/04/23 03:04:43;;;;;;;0.00;0.00;;;;;;;7.23;90.50;101148.53;6254597;22;20343;-74
2024/04/23 03:07:10;;;;;;;0.00;0.00;;;;;;;7.10;90.66;101120.44;6330741;22;20000;-75
2024/04/23 03:09:36;;;;;;;0.00;0.00;;;;;;;7.35;90.50;101168.50;6376692;22;20031;-75
2024/04/23 03:12:11;;;;;;;;;;;;;;;;;;;;;
2024/04/23 03:14:37;;;;;;;0.00;0.00;;;;;;;7.35;90.62;101168.50;6338314;22;20003;-74
2024/04/23 03:17:05;;;;;;;0.00;0.00;;;;;;;7.14;90.62;101128.97;6375064;22;20010;-75
2024/04/23 03:19:37;;;;;;;0.00;0.00;;;;;;;7.20;90.51;101127.22;6293134;22;20043;-75
2024/04/23 03:22:11;;;;;;;0.10;0.10;;;;;;;7.35;90.56;101157.63;6294927;22;19999;-74
2024/04/23 03:24:59;;;;;;;0.00;0.00;;;;;;;7.36;90.49;101151.13;6303911;22;20027;-78
2024/04/23 03:27:37;;;;;;;0.00;0.00;;;;;;;7.38;90.78;101153.63;6333411;22;20014;-74
2024/04/23 03:30:29;;;;;;;0.00;0.00;;;;;;;7.08;90.47;101108.09;6293637;22;19995;-74
2024/04/23 03:33:16;;;;;;;0.00;0.00;;;;;;;7.23;90.31;101135.78;6291527;22;19999;-73
2024/04/23 03:35:51;;;;;;;0.00;0.00;;;;;;;7.33;90.18;101155.13;6373993;22;20414;-74
2024/04/23 03:38:50;;;;;;;;;;;;;;;;;;;;;
2024/04/23 03:41:25;;;;;;;0.00;0.00;;;;;;;7.11;90.08;101119.38;6374518;22;20014;-74
2024/04/23 03:53:14;;;;;;;0.00;0.00;;;;;;;6.79;90.43;101088.75;6425816;22;20030;-78
2024/04/23 03:55:45;;;;;;;0.00;0.00;;;;;;;6.82;90.62;101105.44;6346340;22;20030;-78
2024/04/23 04:10:09;;;;;;;0.00;0.00;;;;;;;7.03;90.44;101144.16;6336598;22;20035;-78
2024/04/23 04:12:35;;;;;;;0.00;0.00;;;;;;;6.58;90.60;101081.84;6391121;22;20309;-79
2024/04/23 04:15:00;;;;;;;0.00;0.00;;;;;;;6.70;91.16;101118.13;6347220;22;19998;-79
2024/04/23 04:17:26;;;;;;;0.00;0.00;;;;;;;6.89;91.16;101132.59;6386313;22;20047;-79
2024/04/23 04:19:51;;;;;;;0.00;0.00;;;;;;;6.60;91.14;101091.44;6385866;22;19998;-78
2024/04/23 04:25:13;;;;;;;0.00;0.00;;;;;;;6.75;90.61;101114.72;6396160;22;19986;-78
2024/04/23 04:31:12;;;;;;;;;;;;;;;;;;;;;
2024/04/23 04:41:21;;;;;;;;;;;;;;;;;;;;;
2024/04/23 04:43:53;;;;;;;0.00;0.00;;;;;;;6.85;90.47;101133.22;6320812;22;20421;-78
2024/04/23 04:46:55;;;;;;;;;;;;;;;;;;;;;
2024/04/23 04:49:21;;;;;;;0.00;0.00;;;;;;;6.96;90.54;101144.19;6416882;22;20065;-78
2024/04/23 04:52:30;;;;;;;0.10;0.10;;;;;;;6.69;90.14;101105.59;6381967;22;19998;-78
2024/04/23 04:55:27;;;;;;;0.10;0.10;;;;;;;6.68;90.26;101109.34;6361940;22;19998;-79
2024/04/23 04:57:53;;;;;;;0.00;0.00;;;;;;;6.62;90.07;101115.69;6392822;22;19998;-78
2024/04/23 05:00:20;;;;;;;0.00;0.00;;;;;;;6.82;90.32;101148.94;6382987;22;20395;-78
2024/04/23 05:02:58;;;;;;;;;;;;;;;;;;;;;
2024/04/23 05:09:05;;;;;;;;;;;;;;;;;;;;;
2024/04/23 05:11:49;;;;;;;0.00;0.00;;;;;;;6.67;90.77;101134.84;6359434;22;19995;-77
2024/04/23 05:14:25;;;;;;;;;;;;;;;;;;;;;
2024/04/23 05:17:22;;;;;;;0.10;0.10;;;;;;;6.63;90.99;101128.22;6423441;22;20002;-78
2024/04/23 05:19:48;;;;;;;0.10;0.10;;;;;;;6.98;91.00;101180.19;6385654;22;20005;-78
2024/04/23 05:28:45;;;;;;;0.10;0.10;;;;;;;6.80;91.39;101155.66;6400888;22;19998;-77
2024/04/23 05:33:57;;;;;;;0.00;0.00;;;;;;;6.75;91.26;101136.47;6426761;22;20009;-78
2024/04/23 05:36:25;;;;;;;0.00;0.00;;;;;;;6.90;91.14;101150.53;6384861;22;20007;-78
2024/04/23 05:38:50;;;;;;;0.10;0.10;;;;;;;7.13;91.56;101179.00;6304067;22;20037;-77
2024/04/23 05:41:18;;;;;;;0.00;0.00;;;;;;;7.09;91.60;101159.56;6339755;22;20007;-77
2024/04/23 05:43:46;;;;;;;0.00;0.00;;;;;;;7.20;91.20;101187.06;6383328;22;19998;-77
2024/04/23 05:46:11;;;;;;;0.00;0.00;;;;;;;7.14;91.47;101183.34;6380971;22;20006;-78
2024/04/23 05:49:22;;;;;;;0.00;0.00;;;;;;;7.22;91.86;101187.69;6428741;22;20002;-79
2024/04/23 05:52:25;;;;;;;0.00;0.00;;;;;;;7.32;91.80;101196.16;6382842;22;20026;-78
2024/04/23 05:55:28;;;;;;;0.00;0.00;;;;;;;7.42;91.34;101185.59;6422597;22;20010;-78
2024/04/23 05:57:54;;;;;;;0.00;0.00;;;;;;;7.29;90.79;101153.09;6385125;22;19998;-81
2024/04/23 06:00:29;;;;;;;0.10;0.10;;;;;;;7.35;90.98;101154.91;6387143;22;19994;-76
2024/04/23 06:03:04;;;;;;;0.00;0.00;;;;;;;7.51;90.50;101167.91;6385428;22;19998;-76
2024/04/23 06:05:29;;;;;;;0.00;0.00;;;;;;;7.67;90.37;101187.41;6385509;22;20005;-80
2024/04/23 06:08:33;;;;;;;0.00;0.00;;;;;;;7.65;90.65;101173.16;6390413;22;19999;-79
2024/04/23 06:10:58;;;;;;;0.00;0.00;;;;;;;7.68;90.28;101150.94;6294703;22;19994;-78
2024/04/23 06:13:45;;;;;;;0.00;0.00;;;;;;;7.49;90.27;101110.16;6344385;22;19994;-77
2024/04/23 06:16:20;;;;;;;0.00;0.00;;;;;;;7.66;90.54;101142.19;6384744;22;20006;-78
2024/04/23 06:26:00;;;;;;;0.10;0.10;;;;;;;7.55;91.24;101110.28;6425021;22;20010;-78
2024/04/23 06:28:44;;;;;;;;;;;;;;;;;;;;;
2024/04/23 06:31:18;;;;;;;0.00;0.00;;;;;;;7.63;91.67;101096.38;6390836;22;20002;-79
2024/04/23 06:33:47;;;;;;;0.00;0.00;;;;;;;7.68;91.66;101097.34;6389537;22;20014;-79
2024/04/23 06:36:12;;;;;;;0.00;0.00;;;;;;;7.97;91.79;101121.22;6344618;22;20317;-79
2024/04/23 06:38:38;;;;;;;0.00;0.00;;;;;;;8.10;91.40;101137.38;6347276;22;20002;-78
2024/04/23 06:41:03;;;;;;;0.00;0.00;;;;;;;8.08;91.68;101142.25;6382094;22;20329;-78
2024/04/23 06:43:31;;;;;;;0.00;0.00;;;;;;;8.20;91.43;101115.84;6386571;22;20003;-79
2024/04/23 06:46:27;;;;;;;;;;;;;;;;;;;;;
2024/04/23 06:48:56;;;;;;;0.00;0.00;;;;;;;8.77;89.51;101119.97;6429620;22;20009;-78
2024/04/23 06:51:40;;;;;;;;;;;;;;;;;;;;;
2024/04/23 06:54:27;;;;;;;0.10;0.10;;;;;;;9.33;88.67;101105.94;6428416;22;20007;-74
2024/04/23 06:56:55;;;;;;;0.00;0.00;;;;;;;9.68;87.76;101140.50;6343194;22;19998;-77
2024/04/23 06:59:44;;;;;;;0.00;0.00;;;;;;;9.85;87.53;101138.66;6430140;22;19999;-76
2024/04/23 07:02:11;;;;;;;0.00;0.00;;;;;;;10.12;86.87;101149.81;6387525;22;19999;-75
2024/04/23 07:04:36;;;;;;;0.00;0.00;;;;;;;10.06;86.50;101120.75;6430177;22;19994;-78
2024/04/23 07:07:09;;;;;;;0.00;0.00;;;;;;;9.88;86.68;101108.09;6384330;22;20013;-78
2024/04/23 07:09:35;;;;;;;0.00;0.00;;;;;;;9.73;87.13;101105.09;6428706;22;20039;-76
2024/04/23 07:12:00;;;;;;;0.10;0.10;;;;;;;9.99;87.77;101132.88;6382558;22;20006;-76
2024/04/23 07:14:26;;;;;;;0.00;0.00;;;;;;;10.41;87.31;101138.88;6385948;22;20299;-76
2024/04/23 07:16:51;;;;;;;0.00;0.00;;;;;;;10.88;86.48;101132.25;6426623;22;19998;-76
2024/04/23 07:19:24;;;;;;;0.00;0.00;;;;;;;11.65;84.26;101133.28;6386137;22;20046;-76
2024/04/23 07:21:50;;;;;;;0.05;0.05;;;;;;;12.10;82.04;101119.50;6386894;22;19995;-76
2024/04/23 07:24:17;;;;;;;0.00;0.00;;;;;;;12.21;80.07;101110.31;6385967;22;20293;-76
2024/04/23 07:26:43;;;;;;;0.00;0.00;;;;;;;12.40;79.29;101138.97;6429707;22;20022;-77
2024/04/23 07:29:08;;;;;;;0.00;0.00;;;;;;;12.00;79.59;101137.53;6383311;22;20009;-78
2024/04/23 07:32:01;;;;;;;0.00;0.00;;;;;;;12.03;79.99;101120.56;6385646;22;20025;-76
2024/04/23 07:34:27;;;;;;;0.00;0.00;;;;;;;12.34;79.39;101118.09;6385217;22;20005;-76
2024/04/23 07:37:18;;;;;;;;;;;;;;;;;;;;;
2024/04/23 07:39:43;;;;;;;0.00;0.00;;;;;;;12.66;77.29;101128.22;6395816;22;19998;-76
2024/04/23 07:42:09;;;;;;;0.00;0.00;;;;;;;12.80;76.21;101145.06;6345271;22;20009;-77
2024/04/23 07:44:47;;;;;;;;;;;;;;;;;;;;;
2024/04/23 07:47:24;;;;;;;;;;;;;;;;;;;;;
2024/04/23 07:49:50;;;;;;;0.08;0.08;;;;;;;12.86;74.16;101154.16;6426605;22;20015;-78
2024/04/23 07:52:18;;;;;;;0.00;0.00;;;;;;;13.14;72.90;101117.28;6429380;22;19998;-76
2024/04/23 07:54:54;;;;;;;;;;;;;;;;;;;;;
2024/04/23 07:57:23;;;;;;;0.00;0.00;;;;;;;13.42;70.99;101135.31;6345820;22;20005;-76
2024/04/23 07:59:51;;;;;;;0.00;0.00;;;;;;;13.70;70.52;101152.44;6394548;22;20871;-77
2024/04/23 08:02:26;;;;;;;0.00;0.00;;;;;;;13.90;69.42;101137.09;6394260;22;19994;-76
2024/04/23 08:04:59;;;;;;;0.00;0.00;;;;;;;14.08;68.59;101111.84;6391850;22;20013;-77
2024/04/23 08:07:26;;;;;;;0.00;0.00;;;;;;;14.54;67.25;101132.25;6386677;22;20002;-76
2024/04/23 08:09:51;;;;;;;0.00;0.00;;;;;;;14.44;66.48;101130.31;6385717;22;20871;-78
2024/04/23 08:12:17;;;;;;;0.03;0.03;;;;;;;14.29;65.43;101159.50;6342325;22;19998;-76
2024/04/23 08:14:42;;;;;;;0.00;0.00;;;;;;;14.16;64.71;101129.75;6342819;22;20002;-77
2024/04/23 08:17:08;;;;;;;0.00;0.00;;;;;;;14.65;64.65;101161.47;6299703;22;20014;-77
2024/04/23 08:19:48;;;;;;;0.00;0.00;;;;;;;15.28;62.91;101163.03;6429643;22;20005;-77
2024/04/23 08:22:23;;;;;;;0.00;0.00;;;;;;;15.76;60.17;101157.88;6424410;22;20002;-77
2024/04/23 08:24:48;;;;;;;0.00;0.00;;;;;;;15.93;58.08;101145.69;6383694;22;20918;-77
2024/04/23 08:27:21;;;;;;;0.00;0.00;;;;;;;16.45;57.55;101160.78;6342702;22;20417;-76
2024/04/23 08:30:05;;;;;;;0.00;0.00;;;;;;;16.96;55.99;101167.84;6343496;22;20002;-77
2024/04/23 08:32:42;;;;;;;0.00;0.00;;;;;;;16.91;54.41;101154.91;6344109;22;20054;-76
2024/04/23 08:35:07;;;;;;;0.00;0.00;;;;;;;16.97;53.29;101158.44;6345473;22;20005;-77
2024/04/23 08:37:33;;;;;;;0.00;0.00;;;;;;;17.08;52.99;101159.16;6341175;22;19998;-77
2024/04/23 08:40:26;;;;;;;;;;;;;;;;;;;;;
2024/04/23 08:43:18;;;;;;;0.00;0.00;;;;;;;17.84;51.11;101170.44;6426349;22;20005;-76
2024/04/23 08:45:44;;;;;;;0.00;0.00;;;;;;;18.74;49.77;101164.16;6383702;22;20010;-77
2024/04/23 08:48:11;;;;;;;0.00;0.00;;;;;;;19.35;48.14;101160.25;6380556;22;20637;-76
2024/04/23 08:50:37;;;;;;;0.00;0.00;;;;;;;19.12;46.38;101141.88;6384484;22;19994;-77
2024/04/23 08:53:05;;;;;;;0.00;0.00;;;;;;;18.92;46.22;101171.59;6382124;22;19995;-77
2024/04/23 08:55:35;;;;;;;0.00;0.00;;;;;;;18.57;45.49;101157.19;6342072;22;20006;-76
2024/04/23 08:58:11;;;;;;;0.00;0.00;;;;;;;17.93;45.22;101160.38;6382544;22;20030;-76
2024/04/23 09:00:41;;;;;;;0.00;0.00;;;;;;;17.61;46.45;101139.75;6382638;22;20025;-76
2024/04/23 09:03:12;;;;;;;0.00;0.00;;;;;;;18.01;46.83;101150.59;6383671;22;19999;-77
2024/04/23 09:06:13;;;;;;;;;;;;;;;;;;;;;
2024/04/23 09:08:41;;;;;;;0.00;0.00;;;;;;;17.77;45.63;101109.94;6410790;22;19998;-78
2024/04/23 09:11:10;;;;;;;0.00;0.00;;;;;;;17.54;46.15;101128.22;6343797;22;20026;-76
2024/04/23 09:13:36;;;;;;;0.00;0.00;;;;;;;17.63;46.32;101145.81;6382757;22;20019;-76
2024/04/23 09:16:02;;;;;;;0.00;0.00;;;;;;;17.76;46.13;101138.72;6343524;22;20002;-76
2024/04/23 09:18:30;;;;;;;0.00;0.00;;;;;;;18.23;45.34;101144.44;6428109;22;20284;-77
2024/04/23 09:20:56;;;;;;;0.00;0.00;;;;;;;18.59;43.95;101135.56;6382310;22;20017;-76
2024/04/23 09:23:31;;;;;;;0.00;0.00;;;;;;;18.17;43.30;101131.00;6386304;22;19998;-76
2024/04/23 09:26:07;;;;;;;0.00;0.00;;;;;;;17.85;43.84;101133.34;6383367;22;20125;-76
2024/04/23 09:28:34;;;;;;;0.00;0.00;;;;;;;18.16;43.77;101132.94;6383951;22;20017;-77
2024/04/23 09:31:15;;;;;;;;;;;;;;;;;;;;;
2024/04/23 09:33:51;;;;;;;0.00;0.00;;;;;;;19.41;39.85;101096.38;6399955;22;20013;-76
2024/04/23 09:36:26;;;;;;;0.00;0.00;;;;;;;19.40;40.12;101125.25;6391695;22;20036;-76
2024/04/23 09:38:53;;;;;;;0.00;0.00;;;;;;;20.96;39.58;101141.63;6434375;22;20010;-76
2024/04/23 09:44:46;;;;;;;0.00;0.00;;;;;;;27.57;30.63;101117.47;6417865;22;19991;-76
2024/04/23 09:47:12;;;;;;;0.00;0.00;;;;;;;28.11;29.98;101084.94;6414745;22;20010;-76
2024/04/23 09:49:37;;;;;;;0.00;0.00;;;;;;;28.77;27.98;101104.72;6385054;22;20425;-76
2024/04/23 09:52:14;;;;;;;0.00;0.00;;;;;;;29.56;25.83;101089.94;6386884;22;20444;-76
2024/04/23 09:54:59;;;;;;;0.00;0.00;;;;;;;28.53;26.17;101107.50;6383819;22;20005;-76
2024/04/23 09:57:27;;;;;;;0.00;0.00;;;;;;;26.59;27.33;101063.69;6383668;22;20022;-77
2024/04/23 09:59:53;;;;;;;0.00;0.00;;;;;;;25.48;29.05;101089.31;6385924;22;19991;-77
2024/04/23 10:02:28;;;;;;;0.00;0.00;;;;;;;25.10;29.83;101085.66;6384308;22;19998;-75
2024/04/23 10:05:00;;;;;;;0.00;0.00;;;;;;;28.84;27.55;101073.88;6346617;22;20013;-76
2024/04/23 10:07:28;;;;;;;0.00;0.00;;;;;;;30.50;22.24;101093.16;6383648;22;20291;-76
2024/04/23 10:09:54;;;;;;;0.00;0.00;;;;;;;28.54;23.90;101082.97;6428950;22;19999;-77
2024/04/23 10:12:36;;;;;;;0.00;0.00;;;;;;;25.75;25.92;101076.53;6300639;22;20069;-76
2024/04/23 10:15:33;;;;;;;0.00;0.00;;;;;;;23.62;29.02;101087.91;6427793;22;20031;-75
2024/04/23 10:18:23;;;;;;;0.00;0.00;;;;;;;22.38;30.69;101075.59;6427756;22;20002;-76
2024/04/23 10:21:00;;;;;;;;;;;;;;;;;;;;;
2024/04/23 10:23:29;;;;;;;0.00;0.00;;;;;;;21.18;33.18;101087.09;6428639;22;19999;-77
2024/04/23 10:26:06;;;;;;;0.00;0.00;;;;;;;21.02;33.66;101090.28;6425772;22;19999;-76
2024/04/23 10:28:32;;;;;;;0.00;0.00;;;;;;;20.62;34.63;101090.25;6383455;22;20038;-75
2024/04/23 10:31:00;;;;;;;0.00;0.00;;;;;;;20.31;34.56;101067.97;6301390;22;20306;-75
2024/04/23 10:33:31;;;;;;;0.00;0.00;;;;;;;20.23;34.61;101064.00;6344055;22;20007;-76
2024/04/23 10:36:17;;;;;;;0.00;0.00;;;;;;;20.09;34.37;101085.44;6426924;22;20002;-75
2024/04/23 10:38:43;;;;;;;0.00;0.00;;;;;;;19.87;35.15;101087.06;6385009;22;20045;-75
2024/04/23 10:41:23;;;;;;;0.00;0.00;;;;;;;19.88;34.23;101066.50;6384012;22;20027;-76
2024/04/23 10:43:50;;;;;;;0.00;0.00;;;;;;;20.14;34.07;101071.47;6386176;22;20017;-77
2024/04/23 10:46:16;;;;;;;0.00;0.00;;;;;;;20.39;33.95;101064.44;6380953;22;19999;-76
2024/04/23 10:48:53;;;;;;;0.00;0.00;;;;;;;21.68;33.60;101067.25;6345824;22;20009;-77
2024/04/23 10:51:23;;;;;;;0.00;0.00;;;;;;;25.80;30.82;101067.88;6383975;22;20402;-77
2024/04/23 10:54:15;;;;;;;;;;;;;;;;;;;;;
2024/04/23 10:56:43;;;;;;;0.00;0.00;;;;;;;31.19;21.99;101052.22;6387602;22;19999;-76
2024/04/23 10:59:17;;;;;;;0.00;0.00;;;;;;;29.30;22.93;101048.50;6343483;22;19998;-77
2024/04/23 11:01:56;;;;;;;0.00;0.00;;;;;;;28.14;24.43;101058.91;6426952;22;19998;-76
2024/04/23 11:04:35;;;;;;;0.00;0.00;;;;;;;28.77;24.54;101059.69;6388581;22;20022;-76
2024/04/23 11:07:05;;;;;;;0.00;0.00;;;;;;;28.87;23.46;101042.19;6382324;22;19999;-76
2024/04/23 11:09:43;;;;;;;0.00;0.00;;;;;;;27.52;24.35;101059.59;6347262;22;19999;-75
2024/04/23 11:12:23;;;;;;;0.00;0.00;;;;;;;27.81;24.68;101032.13;6345043;22;20085;-77
2024/04/23 11:14:49;;;;;;;0.00;0.00;;;;;;;30.23;24.14;101040.47;6427940;22;20002;-76
2024/04/23 11:17:25;;;;;;;0.00;0.00;;;;;;;31.54;21.44;101045.16;6342795;22;20017;-75
2024/04/23 11:19:52;;;;;;;0.00;0.00;;;;;;;31.96;20.46;101061.53;6384290;22;20013;-77
2024/04/23 11:22:53;;;;;;;0.00;0.00;;;;;;;29.71;21.44;101062.75;6426422;22;20003;-75
2024/04/23 11:25:34;;;;;;;0.00;0.00;;;;;;;26.20;24.54;101053.06;6384653;22;20290;-77
2024/04/23 11:28:00;;;;;;;0.00;0.00;;;;;;;23.70;26.77;101042.38;6383945;22;20017;-77
2024/04/23 11:30:26;;;;;;;0.00;0.00;;;;;;;22.36;28.42;101013.03;6345010;22;20014;-75
2024/04/23 11:33:03;;;;;;;;;;;;;;;;;;;;;
2024/04/23 11:35:32;;;;;;;0.00;0.00;;;;;;;21.32;30.76;101032.16;6428155;22;19998;-77
2024/04/23 11:38:07;;;;;;;0.00;0.00;;;;;;;21.00;31.45;101034.19;6425014;22;20107;-74
2024/04/23 11:40:35;;;;;;;0.00;0.00;;;;;;;21.35;31.59;101039.84;6427819;22;19998;-75
2024/04/23 11:43:01;;;;;;;0.00;0.00;;;;;;;21.31;31.63;101029.69;6383029;22;19995;-77
2024/04/23 11:45:37;;;;;;;;;;;;;;;;;;;;;
2024/04/23 11:48:06;;;;;;;0.00;0.00;;;;;;;20.43;32.12;101029.34;6426239;22;20014;-76
2024/04/23 11:50:31;;;;;;;0.00;0.00;;;;;;;20.01;32.89;101023.19;6386739;22;20002;-75
2024/04/23 11:53:00;;;;;;;0.00;0.00;;;;;;;19.28;33.70;101004.56;6301843;22;20009;-76
2024/04/23 11:55:26;;;;;;;0.00;0.00;;;;;;;19.43;33.73;101035.88;6384181;22;20018;-76
2024/04/23 11:57:53;;;;;;;0.00;0.00;;;;;;;19.15;34.34;100999.88;6382136;22;20066;-76
2024/04/23 12:00:20;;;;;;;0.00;0.00;;;;;;;18.87;34.52;100993.56;6425890;22;20007;-77
2024/04/23 12:02:47;;;;;;;0.00;0.00;;;;;;;18.64;34.98;100988.66;6343641;22;20003;-77
2024/04/23 12:05:14;;;;;;;0.00;0.00;;;;;;;18.47;35.27;101010.59;6380299;22;20001;-76
2024/04/23 12:07:40;;;;;;;0.00;0.00;;;;;;;18.49;35.69;101024.97;6385782;22;20298;-77
2024/04/23 12:10:45;;;;;;;0.00;0.00;;;;;;;18.20;36.11;101000.31;6428226;22;20013;-78
2024/04/23 12:13:20;;;;;;;0.00;0.00;;;;;;;17.65;36.86;101020.25;6386573;22;20002;-77
2024/04/23 12:15:58;;;;;;;0.00;0.00;;;;;;;17.18;37.83;100982.19;6426268;22;19995;-76
2024/04/23 12:18:26;;;;;;;0.00;0.00;;;;;;;17.48;38.45;101002.25;6385298;22;20009;-76
2024/04/23 12:21:01;;;;;;;0.00;0.00;;;;;;;17.96;38.36;101004.84;6380086;22;20132;-75
2024/04/23 12:23:27;;;;;;;0.00;0.00;;;;;;;19.42;36.72;101014.81;6302277;22;20031;-75
2024/04/23 12:25:52;;;;;;;0.00;0.00;;;;;;;19.47;35.62;100993.34;6425167;22;19998;-75
2024/04/23 12:28:18;;;;;;;0.00;0.00;;;;;;;18.93;35.56;101001.44;6383700;22;20014;-74
2024/04/23 12:30:44;;;;;;;0.00;0.00;;;;;;;18.27;36.30;100979.41;6337792;22;20026;-74
2024/04/23 12:33:27;;;;;;;0.00;0.00;;;;;;;17.76;37.40;101002.38;6426510;22;20003;-74
2024/04/23 12:36:11;;;;;;;0.00;0.00;;;;;;;17.23;37.80;100973.84;6338564;22;19994;-75
2024/04/23 12:38:47;;;;;;;0.00;0.00;;;;;;;17.62;37.72;101000.38;6426230;22;20053;-74
2024/04/23 12:41:42;;;;;;;;;;;;;;;;;;;;;
2024/04/23 12:44:34;;;;;;;;;;;;;;;;;;;;;
2024/04/23 12:47:13;;;;;;;;;;;;;;;;;;;;;
2024/04/23 12:49:44;;;;;;;0.00;0.00;;;;;;;18.72;35.16;100983.53;6427481;22;19999;-75
2024/04/23 12:52:09;;;;;;;0.00;0.00;;;;;;;21.76;33.84;100990.47;6390230;22;19998;-75
2024/04/23 12:54:35;;;;;;;0.00;0.00;;;;;;;24.78;28.94;101007.13;6389992;22;20005;-74
2024/04/23 12:57:11;;;;;;;;;;;;;;;;;;;;;
2024/04/23 12:59:44;;;;;;;0.00;0.00;;;;;;;22.59;28.65;100994.91;6426924;22;20013;-75
2024/04/23 13:02:13;;;;;;;0.00;0.00;;;;;;;21.58;30.15;100950.69;6339893;22;20009;-75
2024/04/23 13:04:50;;;;;;;0.00;0.00;;;;;;;23.92;28.75;101009.66;6381419;22;20002;-75
2024/04/23 13:07:22;;;;;;;0.00;0.00;;;;;;;24.49;27.67;100972.56;6343180;22;20291;-75
2024/04/23 13:10:31;;;;;;;;;;;;;;;;;;;;;
2024/04/23 13:12:57;;;;;;;;;;;;;;;;;;;;;
2024/04/23 13:15:33;;;;;;;;;;;;;;;;;;;;;
2024/04/23 13:18:24;;;;;;;0.00;0.00;;;;;;;26.67;26.25;100984.19;6426031;22;20425;-75
2024/04/23 13:24:22;;;;;;;0.00;0.00;;;;;;;25.01;25.19;100965.47;6361616;22;19998;-75
2024/04/23 13:26:46;;;;;;;0.00;0.00;;;;;;;22.79;27.00;100965.47;6424700;22;19991;-74
2024/04/23 13:32:29;;;;;;;0.00;0.00;;;;;;;19.82;30.69;100999.22;6354276;22;19994;-74
2024/04/23 13:35:04;;;;;;;0.00;0.00;;;;;;;18.88;32.16;100982.16;6345270;22;20022;-74
2024/04/23 13:37:53;;;;;;;;;;;;;;;;;;;;;
2024/04/23 13:40:20;;;;;;;0.00;0.00;;;;;;;17.72;33.78;100940.47;6426456;22;20274;-76
2024/04/23 13:42:57;;;;;;;0.00;0.00;;;;;;;17.90;34.13;100953.50;6383818;22;20002;-77
2024/04/23 13:45:33;;;;;;;;;;;;;;;;;;;;;
2024/04/23 13:48:09;;;;;;;0.00;0.00;;;;;;;18.75;32.74;100927.53;6428660;22;19998;-76
2024/04/23 13:50:37;;;;;;;0.00;0.00;;;;;;;19.41;32.46;100971.59;6385466;22;20002;-75
2024/04/23 13:53:07;;;;;;;0.00;0.00;;;;;;;19.80;31.60;100945.16;6340391;22;20035;-75
2024/04/23 13:55:34;;;;;;;0.00;0.00;;;;;;;20.25;31.00;100947.06;6345995;22;20418;-76
2024/04/23 13:58:25;;;;;;;0.00;0.00;;;;;;;21.58;30.00;100953.47;6381902;22;20003;-76
2024/04/23 14:01:21;;;;;;;;;;;;;;;;;;;;;
2024/04/23 14:04:05;;;;;;;0.00;0.00;;;;;;;22.58;28.77;100964.59;6388826;22;20002;-76
2024/04/23 14:06:38;;;;;;;0.00;0.00;;;;;;;23.14;27.99;100965.28;6384631;22;19998;-77
2024/04/23 14:09:06;;;;;;;0.00;0.00;;;;;;;23.12;27.30;100947.25;6301715;22;19991;-75
2024/04/23 14:11:32;;;;;;;0.00;0.00;;;;;;;23.20;27.57;100929.63;6384915;22;20003;-76
2024/04/23 14:14:00;;;;;;;0.00;0.00;;;;;;;22.80;27.64;100927.25;6382813;22;20014;-75
2024/04/23 14:17:00;;;;;;;0.00;0.00;;;;;;;23.12;27.71;100938.88;6384170;22;20026;-77
2024/04/23 14:19:35;;;;;;;0.00;0.00;;;;;;;26.07;26.33;100959.00;6382518;22;20263;-77
2024/04/23 14:22:20;;;;;;;0.00;0.00;;;;;;;29.64;22.75;100966.84;6428656;22;20013;-78
2024/04/23 14:24:48;;;;;;;0.00;0.00;;;;;;;30.21;20.91;100954.59;6383123;22;19994;-76
2024/04/23 14:27:15;;;;;;;0.00;0.00;;;;;;;28.94;21.45;100946.59;6383835;22;19995;-75
2024/04/23 14:29:55;;;;;;;;;;;;;;;;;;;;;
2024/04/23 14:33:10;;;;;;;0.00;0.00;;;;;;;25.12;23.20;100968.63;6387082;22;20009;-78
2024/04/23 14:35:56;;;;;;;0.00;0.00;;;;;;;22.62;25.39;100935.72;6362592;22;19986;-77
2024/04/23 14:39:21;;;;;;;;;;;;;;;;;;;;;
2024/04/23 14:42:17;;;;;;;;;;;;;;;;;;;;;
2024/04/23 14:44:54;;;;;;;0.00;0.00;;;;;;;19.42;30.35;100918.59;6426452;22;20002;-76
2024/04/23 14:47:32;;;;;;;0.00;0.00;;;;;;;20.29;30.21;100910.00;6346087;22;19998;-77
2024/04/23 14:50:21;;;;;;;0.00;0.00;;;;;;;21.23;29.34;100923.69;6381696;22;19998;-76
2024/04/23 14:53:09;;;;;;;0.00;0.00;;;;;;;21.83;28.53;100903.69;6390311;22;19995;-77
2024/04/23 14:55:56;;;;;;;0.00;0.00;;;;;;;22.95;27.63;100932.22;6352613;22;19994;-78
2024/04/23 14:58:38;;;;;;;0.00;0.00;;;;;;;23.06;27.08;100934.66;6426632;22;19999;-76
2024/04/23 15:01:49;;;;;;;;;;;;;;;;;;;;;
2024/04/23 15:11:19;;;;;;;0.00;0.00;;;;;;;20.64;29.61;100890.69;6088928;23;20003;-77
2024/04/23 15:13:44;;;;;;;0.00;0.00;;;;;;;21.42;29.38;100909.44;6159011;23;20014;-77
2024/04/23 15:16:10;;;;;;;0.00;0.00;;;;;;;22.43;29.04;100924.97;6146629;23;19990;-77
2024/04/23 15:18:42;;;;;;;0.00;0.00;;;;;;;22.72;27.84;100908.59;6229481;22;20006;-76
2024/04/23 15:21:21;;;;;;;0.00;0.00;;;;;;;22.70;27.41;100933.22;6382938;22;19998;-76
2024/04/23 15:23:49;;;;;;;0.00;0.00;;;;;;;21.97;27.94;100907.09;6382382;22;19999;-80
2024/04/23 15:26:14;;;;;;;0.00;0.00;;;;;;;21.41;28.17;100907.78;6427433;22;20077;-77
2024/04/23 15:28:46;;;;;;;0.00;0.00;;;;;;;20.86;28.97;100869.50;6384279;22;20002;-76
2024/04/23 15:31:12;;;;;;;0.00;0.00;;;;;;;20.70;29.54;100917.19;6340322;22;20005;-75
2024/04/23 15:33:49;;;;;;;0.00;0.00;;;;;;;20.24;30.24;100918.47;6386039;22;20002;-76
2024/04/23 15:36:14;;;;;;;0.00;0.00;;;;;;;19.63;31.07;100885.63;6385550;22;20029;-76
2024/04/23 15:38:40;;;;;;;0.00;0.00;;;;;;;19.84;31.43;100910.09;6386417;22;19998;-76
2024/04/23 15:41:10;;;;;;;0.00;0.00;;;;;;;20.12;31.32;100898.81;6428039;22;20299;-75
2024/04/23 15:43:35;;;;;;;0.00;0.00;;;;;;;21.61;30.20;100888.81;6383896;22;20005;-77
2024/04/23 15:46:12;;;;;;;0.00;0.00;;;;;;;24.06;28.82;100881.69;6344548;22;20010;-75
2024/04/23 15:48:37;;;;;;;0.00;0.00;;;;;;;25.54;27.06;100898.34;6384568;22;20009;-77